createdAt,value
2017-05-24T00:00:51.922Z,2.28
2017-05-24T00:03:20.161Z,2.42
2017-05-24T00:05:48.381Z,2.52
2017-05-24T00:08:15.856Z,2.60
2017-05-24T00:10:44.193Z,2.52
2017-05-24T00:13:12.429Z,2.20
2017-05-24T00:15:40.663Z,2.30
2017-05-24T00:18:08.886Z,2.60
2017-05-24T00:20:37.189Z,2.34
2017-05-24T00:23:05.411Z,2.66
2017-05-24T00:25:33.651Z,2.38
2017-05-24T00:28:01.893Z,2.70
2017-05-24T00:30:30.131Z,2.46
2017-05-24T00:32:58.382Z,2.20
2017-05-24T00:35:26.617Z,2.82
2017-05-24T00:37:54.875Z,2.20
2017-05-24T00:40:23.190Z,2.20
2017-05-24T00:42:51.430Z,2.52
2017-05-24T00:45:19.664Z,2.22
2017-05-24T00:47:47.905Z,2.32
2017-05-24T00:50:16.140Z,2.44
2017-05-24T00:52:44.465Z,2.40
2017-05-24T00:55:12.701Z,2.14
2017-05-24T00:57:40.938Z,2.58
2017-05-24T01:00:09.171Z,2.52
2017-05-24T01:02:37.418Z,2.50
2017-05-24T01:05:05.664Z,2.52
2017-05-24T01:07:33.888Z,2.36
2017-05-24T01:10:02.178Z,2.32
2017-05-24T01:12:30.459Z,2.32
2017-05-24T01:14:58.681Z,2.34
2017-05-24T01:17:26.903Z,2.46
2017-05-24T01:19:55.194Z,2.10
2017-05-24T01:22:23.466Z,2.30
2017-05-24T01:24:51.701Z,2.44
2017-05-24T01:27:19.919Z,2.44
2017-05-24T01:29:48.158Z,2.32
2017-05-24T01:32:15.619Z,2.16
2017-05-24T01:34:43.859Z,2.34
2017-05-24T01:37:12.191Z,2.16
2017-05-24T01:39:40.414Z,2.12
2017-05-24T01:42:07.901Z,2.34
2017-05-24T01:44:36.202Z,2.38
2017-05-24T01:47:04.449Z,2.28
2017-05-24T01:49:32.686Z,2.42
2017-05-24T01:52:01.018Z,2.14
2017-05-24T01:54:29.263Z,2.36
2017-05-24T01:56:57.497Z,2.50
2017-05-24T01:59:25.758Z,2.46
2017-05-24T02:01:53.996Z,2.30
2017-05-24T02:04:22.229Z,2.50
2017-05-24T02:06:50.561Z,2.50
2017-05-24T02:09:18.792Z,2.36
2017-05-24T02:11:47.019Z,2.32
2017-05-24T02:14:15.315Z,2.20
2017-05-24T02:16:43.581Z,1.94
2017-05-24T02:19:11.817Z,2.46
2017-05-24T02:21:39.270Z,2.36
2017-05-24T02:24:07.500Z,1.90
2017-05-24T02:26:35.763Z,2.30
2017-05-24T02:29:03.998Z,2.20
2017-05-24T02:31:32.240Z,2.30
2017-05-24T02:34:00.477Z,2.44
2017-05-24T02:36:28.721Z,2.22
2017-05-24T02:39:00.311Z,2.64
2017-05-24T02:41:28.569Z,1.82
2017-05-24T02:43:56.794Z,2.06
2017-05-24T02:46:25.019Z,1.98
2017-05-24T02:48:53.258Z,2.02
2017-05-24T02:51:21.493Z,2.24
2017-05-24T02:53:49.734Z,2.08
2017-05-24T02:56:18.043Z,2.46
2017-05-24T02:58:46.286Z,2.00
2017-05-24T03:01:14.507Z,2.20
2017-05-24T03:03:42.750Z,2.06
2017-05-24T03:06:11.042Z,2.20
2017-05-24T03:08:39.365Z,1.92
2017-05-24T03:11:09.104Z,2.12
2017-05-24T03:13:36.686Z,2.06
2017-05-24T03:16:04.911Z,2.20
2017-05-24T03:18:33.237Z,2.16
2017-05-24T03:21:01.463Z,2.08
2017-05-24T03:23:29.686Z,2.06
2017-05-24T03:25:57.931Z,1.92
2017-05-24T03:28:26.281Z,2.24
2017-05-24T03:30:54.595Z,2.12
2017-05-24T03:33:22.889Z,2.28
2017-05-24T03:35:51.147Z,2.22
2017-05-24T03:38:19.441Z,2.00
2017-05-24T03:40:46.913Z,2.24
2017-05-24T03:43:15.176Z,2.00
2017-05-24T03:45:43.395Z,2.20
2017-05-24T03:48:10.879Z,2.42
2017-05-24T03:50:39.099Z,2.14
2017-05-24T03:53:07.442Z,2.00
2017-05-24T03:55:35.736Z,2.06
2017-05-24T03:58:03.996Z,1.88
2017-05-24T04:00:32.233Z,2.22
2017-05-24T04:03:00.455Z,1.94
2017-05-24T04:05:28.709Z,2.00
2017-05-24T04:07:56.945Z,2.36
2017-05-24T04:10:25.263Z,2.08
2017-05-24T04:12:53.557Z,2.02
2017-05-24T04:15:21.784Z,2.02
2017-05-24T04:17:50.171Z,1.84
2017-05-24T04:20:18.381Z,2.20
2017-05-24T04:22:46.608Z,2.66
2017-05-24T04:25:14.843Z,2.18
2017-05-24T04:27:43.868Z,2.10
2017-05-24T04:30:12.096Z,2.44
2017-05-24T04:32:40.380Z,2.14
2017-05-24T04:35:08.604Z,2.22
2017-05-24T04:37:36.827Z,2.22
2017-05-24T04:40:05.065Z,2.50
2017-05-24T04:42:33.302Z,2.04
2017-05-24T04:45:01.656Z,2.14
2017-05-24T04:47:29.888Z,2.40
2017-05-24T04:49:58.204Z,2.04
2017-05-24T04:52:26.449Z,2.10
2017-05-24T04:54:54.693Z,2.32
2017-05-24T04:57:22.937Z,2.30
2017-05-24T04:59:51.202Z,2.00
2017-05-24T05:02:19.439Z,2.64
2017-05-24T05:04:47.673Z,2.32
2017-05-24T05:07:15.919Z,2.32
2017-05-24T05:09:44.167Z,2.70
2017-05-24T05:12:12.391Z,2.62
2017-05-24T05:14:39.861Z,2.44
2017-05-24T05:17:08.097Z,2.00
2017-05-24T05:19:36.343Z,2.52
2017-05-24T05:22:03.809Z,2.22
2017-05-24T05:24:32.041Z,2.38
2017-05-24T05:27:00.263Z,2.20
2017-05-24T05:29:28.521Z,2.20
2017-05-24T05:31:56.845Z,2.58
2017-05-24T05:34:25.086Z,3.04
2017-05-24T05:36:53.378Z,2.44
2017-05-24T05:39:21.665Z,2.44
2017-05-24T05:41:49.899Z,2.90
2017-05-24T05:44:18.219Z,2.60
2017-05-24T05:46:47.321Z,2.82
2017-05-24T05:49:15.569Z,2.38
2017-05-24T05:51:43.807Z,2.36
2017-05-24T05:54:12.026Z,3.06
2017-05-24T05:56:40.286Z,2.70
2017-05-24T05:59:08.526Z,2.10
2017-05-24T06:01:36.855Z,2.38
2017-05-24T06:04:05.100Z,2.32
2017-05-24T06:06:33.338Z,2.42
2017-05-24T06:09:01.590Z,2.60
2017-05-24T06:11:29.826Z,2.30
2017-05-24T06:13:58.078Z,2.46
2017-05-24T06:16:26.321Z,2.42
2017-05-24T06:18:54.585Z,2.46
2017-05-24T06:21:22.866Z,2.40
2017-05-24T06:23:51.128Z,2.26
2017-05-24T06:26:19.415Z,2.70
2017-05-24T06:28:47.638Z,2.00
2017-05-24T06:31:15.967Z,2.10
2017-05-24T06:33:43.530Z,2.28
2017-05-24T06:36:11.807Z,2.28
2017-05-24T06:38:40.077Z,2.28
2017-05-24T06:41:08.330Z,2.58
2017-05-24T06:43:36.629Z,2.18
2017-05-24T06:46:04.858Z,2.12
2017-05-24T06:48:33.180Z,2.34
2017-05-24T06:51:01.444Z,2.12
2017-05-24T06:53:29.681Z,2.22
2017-05-24T06:55:58.004Z,2.38
2017-05-24T06:58:26.286Z,2.50
2017-05-24T07:00:54.521Z,2.40
2017-05-24T07:03:22.833Z,2.36
2017-05-24T07:05:51.109Z,2.08
2017-05-24T07:08:19.387Z,2.00
2017-05-24T07:10:47.625Z,1.92
2017-05-24T07:13:15.893Z,2.08
2017-05-24T07:15:44.133Z,2.18
2017-05-24T07:18:13.404Z,2.02
2017-05-24T07:20:41.689Z,2.14
2017-05-24T07:23:09.927Z,2.12
2017-05-24T07:25:38.175Z,2.06
2017-05-24T07:28:06.415Z,2.08
2017-05-24T07:30:34.729Z,1.90
2017-05-24T07:33:02.949Z,2.12
2017-05-24T07:35:31.183Z,2.00
2017-05-24T07:37:59.501Z,2.30
2017-05-24T07:40:27.728Z,2.60
2017-05-24T07:42:56.043Z,2.26
2017-05-24T07:45:24.338Z,2.10
2017-05-24T07:47:52.581Z,1.90
2017-05-24T07:50:20.849Z,2.08
2017-05-24T07:52:49.092Z,1.78
2017-05-24T07:55:17.322Z,2.16
2017-05-24T07:57:45.544Z,2.02
2017-05-24T08:00:13.793Z,2.28
2017-05-24T08:02:42.061Z,2.16
2017-05-24T08:05:10.349Z,2.24
2017-05-24T08:07:38.586Z,2.26
2017-05-24T08:10:06.807Z,2.08
2017-05-24T08:12:35.035Z,2.02
2017-05-24T08:15:03.336Z,2.50
2017-05-24T08:17:31.618Z,2.04
2017-05-24T08:19:59.858Z,1.96
2017-05-24T08:22:28.113Z,2.36
2017-05-24T08:24:55.571Z,2.30
2017-05-24T08:27:23.795Z,2.20
2017-05-24T08:29:52.064Z,2.36
2017-05-24T08:32:20.296Z,2.40
2017-05-24T08:34:48.619Z,2.30
2017-05-24T08:37:16.854Z,2.20
2017-05-24T08:39:45.090Z,2.02
2017-05-24T08:42:13.325Z,2.06
2017-05-24T08:44:41.623Z,2.10
2017-05-24T08:47:09.899Z,2.42
2017-05-24T08:49:38.169Z,2.22
2017-05-24T08:52:06.436Z,1.96
2017-05-24T08:54:34.722Z,1.90
2017-05-24T08:57:02.946Z,2.40
2017-05-24T08:59:31.178Z,2.34
2017-05-24T09:01:59.399Z,2.18
2017-05-24T09:04:27.711Z,2.40
2017-05-24T09:06:55.997Z,2.28
2017-05-24T09:09:24.234Z,2.00
2017-05-24T09:11:52.550Z,2.14
2017-05-24T09:14:20.826Z,2.16
2017-05-24T09:16:49.072Z,2.42
2017-05-24T09:19:17.310Z,2.22
2017-05-24T09:21:45.563Z,2.02
2017-05-24T09:24:13.816Z,2.12
2017-05-24T09:26:41.285Z,2.10
2017-05-24T09:29:09.526Z,2.00
2017-05-24T09:31:37.751Z,2.14
2017-05-24T09:34:05.980Z,2.10
2017-05-24T09:36:34.274Z,1.96
2017-05-24T09:39:02.518Z,2.00
2017-05-24T09:41:30.774Z,2.50
2017-05-24T09:43:59.054Z,2.30
2017-05-24T09:46:27.290Z,2.36
2017-05-24T09:48:55.525Z,2.20
2017-05-24T09:51:23.742Z,2.38
2017-05-24T09:53:51.979Z,2.30
2017-05-24T09:56:20.262Z,2.36
2017-05-24T09:58:48.499Z,1.96
2017-05-24T10:01:16.719Z,2.24
2017-05-24T10:03:44.961Z,2.04
2017-05-24T10:06:12.418Z,2.10
2017-05-24T10:08:40.727Z,2.04
2017-05-24T10:11:09.058Z,2.36
2017-05-24T10:13:37.393Z,2.12
2017-05-24T10:16:05.633Z,2.72
2017-05-24T10:18:33.941Z,2.14
2017-05-24T10:21:01.502Z,2.64
2017-05-24T10:23:29.741Z,2.20
2017-05-24T10:25:57.990Z,2.20
2017-05-24T10:28:26.329Z,2.06
2017-05-24T10:30:54.600Z,2.24
2017-05-24T10:33:22.846Z,2.34
2017-05-24T10:35:51.077Z,1.80
2017-05-24T10:38:19.314Z,2.10
2017-05-24T10:41:04.213Z,2.20
2017-05-24T10:43:32.449Z,2.44
2017-05-24T10:46:00.686Z,2.36
2017-05-24T10:48:28.911Z,2.26
2017-05-24T10:50:57.141Z,2.38
2017-05-24T10:53:25.375Z,2.52
2017-05-24T10:55:53.619Z,2.60
2017-05-24T10:58:21.866Z,1.94
2017-05-24T11:00:50.093Z,2.20
2017-05-24T11:03:18.342Z,2.16
2017-05-24T11:05:46.581Z,2.20
2017-05-24T11:08:14.913Z,2.38
2017-05-24T11:10:43.153Z,2.02
2017-05-24T11:13:11.387Z,2.04
2017-05-24T11:15:39.645Z,1.76
2017-05-24T11:18:07.898Z,2.10
2017-05-24T11:20:36.115Z,2.10
2017-05-24T11:23:04.339Z,2.10
2017-05-24T11:25:32.627Z,2.40
2017-05-24T11:28:00.866Z,2.18
2017-05-24T11:30:29.179Z,2.38
2017-05-24T11:32:57.415Z,2.26
2017-05-24T11:35:25.732Z,2.40
2017-05-24T11:37:54.346Z,1.90
2017-05-24T11:40:22.613Z,2.42
2017-05-24T11:42:50.841Z,2.40
2017-05-24T11:45:19.077Z,2.30
2017-05-24T11:47:47.313Z,2.16
2017-05-24T11:50:15.541Z,2.32
2017-05-24T11:52:43.767Z,2.28
2017-05-24T11:55:12.009Z,2.06
2017-05-24T11:57:40.242Z,2.78
2017-05-24T12:00:08.471Z,2.20
2017-05-24T12:02:36.704Z,2.70
2017-05-24T12:05:05.030Z,2.36
2017-05-24T12:07:33.315Z,2.18
2017-05-24T12:10:01.596Z,2.46
2017-05-24T12:12:29.842Z,2.38
2017-05-24T12:14:58.138Z,2.40
2017-05-24T12:17:26.417Z,2.54
2017-05-24T12:19:54.654Z,2.68
2017-05-24T12:22:22.125Z,3.20
2017-05-24T12:24:49.584Z,2.66
2017-05-24T12:27:17.834Z,2.74
2017-05-24T12:29:45.291Z,2.62
2017-05-24T12:32:13.520Z,2.60
2017-05-24T12:34:41.749Z,2.14
2017-05-24T12:37:10.065Z,2.10
2017-05-24T12:39:38.306Z,2.34
2017-05-24T12:42:06.541Z,2.42
2017-05-24T12:44:34.020Z,2.24
2017-05-24T12:47:02.261Z,2.46
2017-05-24T12:49:30.533Z,2.48
2017-05-24T12:51:58.764Z,2.30
2017-05-24T12:54:26.991Z,2.46
2017-05-24T12:56:55.219Z,2.40
2017-05-24T12:59:23.457Z,2.48
2017-05-24T13:01:51.689Z,2.36
2017-05-24T13:04:19.926Z,2.48
2017-05-24T13:06:48.235Z,2.84
2017-05-24T13:09:16.492Z,3.42
2017-05-24T13:11:44.801Z,2.96
2017-05-24T13:14:13.044Z,2.74
2017-05-24T13:16:41.350Z,2.92
2017-05-24T13:19:09.629Z,2.32
2017-05-24T13:21:37.881Z,2.40
2017-05-24T13:24:06.116Z,2.56
2017-05-24T13:26:34.342Z,2.94
2017-05-24T13:29:02.573Z,2.36
2017-05-24T13:31:30.910Z,2.58
2017-05-24T13:33:59.135Z,2.76
2017-05-24T13:36:26.605Z,2.62
2017-05-24T13:38:54.842Z,2.60
2017-05-24T13:41:23.065Z,2.80
2017-05-24T13:43:51.303Z,2.72
2017-05-24T13:46:19.537Z,2.80
2017-05-24T13:48:47.768Z,2.54
2017-05-24T13:51:16.007Z,2.84
2017-05-24T13:53:44.254Z,2.22
2017-05-24T13:56:12.481Z,2.50
2017-05-24T13:58:40.730Z,2.46
2017-05-24T14:01:13.108Z,2.60
2017-05-24T14:03:41.926Z,2.50
2017-05-24T14:06:10.234Z,2.58
2017-05-24T14:08:38.508Z,2.68
2017-05-24T14:11:06.753Z,2.64
2017-05-24T14:13:35.053Z,2.58
2017-05-24T14:16:03.289Z,2.54
2017-05-24T14:18:31.525Z,2.62
2017-05-24T14:20:59.751Z,2.62
2017-05-24T14:23:27.971Z,2.44
2017-05-24T14:25:56.242Z,2.44
2017-05-24T14:28:24.486Z,2.52
2017-05-24T14:30:52.723Z,2.44
2017-05-24T14:33:21.066Z,2.32
2017-05-24T14:35:49.345Z,2.40
2017-05-24T14:38:17.618Z,2.54
2017-05-24T14:40:45.858Z,2.46
2017-05-24T14:43:14.161Z,2.64
2017-05-24T14:45:42.449Z,2.16
2017-05-24T14:48:10.722Z,2.50
2017-05-24T14:50:38.980Z,2.68
2017-05-24T14:53:07.215Z,2.44
2017-05-24T14:55:35.456Z,2.40
2017-05-24T14:58:03.721Z,2.44
2017-05-24T15:00:31.962Z,2.60
2017-05-24T15:03:00.197Z,2.66
2017-05-24T15:05:28.491Z,2.48
2017-05-24T15:07:56.737Z,3.08
2017-05-24T15:10:24.988Z,2.60
2017-05-24T15:12:53.215Z,2.42
2017-05-24T15:15:21.453Z,2.68
2017-05-24T15:17:49.707Z,2.50
2017-05-24T15:20:17.957Z,2.20
2017-05-24T15:22:46.194Z,2.38
2017-05-24T15:25:14.550Z,2.60
2017-05-24T15:27:42.770Z,2.44
2017-05-24T15:30:11.026Z,2.10
2017-05-24T15:32:39.261Z,2.58
2017-05-24T15:35:07.539Z,2.76
2017-05-24T15:37:35.781Z,2.40
2017-05-24T15:40:04.097Z,2.72
2017-05-24T15:42:32.333Z,2.46
2017-05-24T15:45:00.635Z,2.52
2017-05-24T15:47:28.911Z,2.88
2017-05-24T15:49:57.154Z,2.50
2017-05-24T15:52:25.401Z,2.68
2017-05-24T15:54:53.623Z,2.32
2017-05-24T15:57:21.856Z,2.50
2017-05-24T15:59:50.099Z,2.70
2017-05-24T16:02:18.362Z,2.36
2017-05-24T16:04:46.584Z,2.20
2017-05-24T16:07:14.821Z,2.42
2017-05-24T16:09:43.058Z,2.44
2017-05-24T16:12:11.293Z,2.68
2017-05-24T16:14:39.546Z,2.38
2017-05-24T16:17:07.785Z,2.56
2017-05-24T16:19:36.005Z,2.56
2017-05-24T16:22:04.273Z,2.12
2017-05-24T16:24:32.541Z,2.28
2017-05-24T16:27:00.771Z,2.20
2017-05-24T16:29:29.026Z,2.56
2017-05-24T16:31:57.252Z,2.52
2017-05-24T16:34:25.493Z,2.48
2017-05-24T16:36:53.803Z,2.62
2017-05-24T16:39:22.037Z,2.36
2017-05-24T16:41:50.259Z,2.64
2017-05-24T16:44:18.493Z,2.60
2017-05-24T16:46:46.723Z,2.40
2017-05-24T16:49:14.957Z,2.42
2017-05-24T16:51:43.270Z,2.40
2017-05-24T16:54:11.509Z,2.60
2017-05-24T16:56:39.823Z,2.32
2017-05-24T16:59:08.071Z,2.34
2017-05-24T17:01:36.336Z,2.66
2017-05-24T17:04:04.569Z,2.40
2017-05-24T17:06:32.814Z,2.40
2017-05-24T17:09:01.080Z,2.30
2017-05-24T17:11:29.366Z,2.82
2017-05-24T17:13:57.613Z,2.28
2017-05-24T17:16:25.849Z,2.64
2017-05-24T17:18:54.092Z,2.50
2017-05-24T17:21:22.361Z,2.22
2017-05-24T17:23:50.593Z,2.50
2017-05-24T17:26:18.908Z,2.46
2017-05-24T17:28:47.147Z,2.56
2017-05-24T17:31:15.371Z,2.18
2017-05-24T17:33:43.606Z,2.38
2017-05-24T17:36:11.846Z,2.38
2017-05-24T17:38:40.179Z,2.30
2017-05-24T17:41:08.469Z,2.46
2017-05-24T17:43:36.699Z,2.64
2017-05-24T17:46:04.967Z,2.60
2017-05-24T17:48:33.293Z,2.64
2017-05-24T17:51:01.533Z,2.30
2017-05-24T17:53:29.777Z,2.40
2017-05-24T17:55:58.010Z,2.54
2017-05-24T17:58:26.218Z,2.44
2017-05-24T18:00:54.563Z,2.70
2017-05-24T18:03:22.851Z,2.78
2017-05-24T18:05:51.080Z,2.88
2017-05-24T18:08:19.324Z,2.40
2017-05-24T18:10:47.569Z,2.58
2017-05-24T18:13:15.801Z,2.72
2017-05-24T18:15:44.113Z,2.54
2017-05-24T18:18:12.362Z,2.40
2017-05-24T18:20:40.677Z,2.86
2017-05-24T18:23:08.920Z,2.48
2017-05-24T18:25:37.156Z,2.52
2017-05-24T18:28:05.385Z,2.68
2017-05-24T18:30:33.642Z,2.32
2017-05-24T18:33:01.950Z,2.92
2017-05-24T18:35:30.214Z,2.70
2017-05-24T18:37:58.441Z,2.70
2017-05-24T18:40:26.677Z,2.58
2017-05-24T18:42:54.918Z,2.72
2017-05-24T18:45:23.154Z,2.58
2017-05-24T18:47:51.489Z,2.42
2017-05-24T18:50:19.741Z,2.86
2017-05-24T18:52:47.971Z,2.56
2017-05-24T18:55:16.196Z,2.66
2017-05-24T18:57:44.436Z,2.48
2017-05-24T19:00:12.773Z,2.42
2017-05-24T19:02:41.038Z,2.52
2017-05-24T19:05:09.283Z,2.78
2017-05-24T19:07:37.521Z,2.58
2017-05-24T19:10:06.809Z,2.72
2017-05-24T19:12:35.075Z,3.04
2017-05-24T19:15:03.299Z,2.56
2017-05-24T19:17:31.546Z,2.60
2017-05-24T19:19:59.771Z,2.70
2017-05-24T19:22:27.991Z,2.88
2017-05-24T19:24:56.239Z,2.84
2017-05-24T19:27:24.523Z,2.46
2017-05-24T19:29:52.793Z,2.80
2017-05-24T19:32:21.079Z,2.90
2017-05-24T19:34:49.318Z,2.52
2017-05-24T19:37:17.621Z,2.78
2017-05-24T19:39:45.901Z,2.58
2017-05-24T19:42:14.174Z,2.68
2017-05-24T19:44:42.450Z,2.58
2017-05-24T19:47:10.690Z,2.74
2017-05-24T19:49:38.940Z,2.78
2017-05-24T19:52:07.164Z,2.52
2017-05-24T19:54:35.405Z,2.90
2017-05-24T19:57:03.633Z,2.90
2017-05-24T19:59:31.873Z,3.06
2017-05-24T20:02:00.118Z,2.72
2017-05-24T20:04:28.451Z,2.62
2017-05-24T20:06:56.697Z,2.60
2017-05-24T20:09:24.928Z,2.76
2017-05-24T20:11:53.159Z,2.82
2017-05-24T20:14:21.401Z,3.04
2017-05-24T20:16:49.643Z,3.14
2017-05-24T20:19:17.879Z,2.48
2017-05-24T20:21:46.115Z,2.68
2017-05-24T20:24:14.335Z,2.62
2017-05-24T20:26:42.620Z,2.78
2017-05-24T20:29:10.849Z,2.92
2017-05-24T20:31:39.082Z,3.06
2017-05-24T20:34:07.320Z,3.04
2017-05-24T20:36:35.559Z,2.64
2017-05-24T20:39:03.812Z,3.00
2017-05-24T20:41:32.071Z,2.90
2017-05-24T20:44:00.295Z,2.90
2017-05-24T20:46:28.523Z,2.90
2017-05-24T20:48:56.766Z,2.78
2017-05-24T20:51:24.997Z,2.96
2017-05-24T20:53:53.239Z,2.80
2017-05-24T20:56:21.507Z,3.20
2017-05-24T20:58:50.509Z,2.98
2017-05-24T21:01:18.779Z,3.00
2017-05-24T21:03:47.007Z,3.10
2017-05-24T21:06:15.240Z,3.30
2017-05-24T21:08:43.509Z,2.74
2017-05-24T21:11:11.793Z,2.84
2017-05-24T21:13:40.015Z,3.02
2017-05-24T21:16:08.240Z,3.04
2017-05-24T21:18:36.426Z,3.42
2017-05-24T21:21:04.775Z,2.96
2017-05-24T21:23:33.051Z,2.66
2017-05-24T21:26:01.289Z,2.80
2017-05-24T21:28:29.525Z,3.20
2017-05-24T21:30:57.756Z,3.32
2017-05-24T21:33:25.979Z,3.18
2017-05-24T21:35:54.214Z,3.42
2017-05-24T21:38:22.461Z,3.14
2017-05-24T21:40:50.697Z,3.32
2017-05-24T21:43:19.066Z,3.10
2017-05-24T21:45:47.338Z,3.24
2017-05-24T21:48:15.578Z,2.94
2017-05-24T22:04:16.707Z,3.24
2017-05-24T22:06:44.934Z,3.06
2017-05-24T22:09:13.175Z,3.10
2017-05-24T22:11:41.409Z,3.56
2017-05-24T22:14:09.646Z,3.80
2017-05-24T22:16:37.894Z,3.42
2017-05-24T22:19:06.135Z,3.42
2017-05-24T22:21:34.371Z,3.22
2017-05-24T22:24:02.604Z,3.56
2017-05-24T22:26:30.852Z,2.94
2017-05-24T22:28:59.085Z,3.14
2017-05-24T22:31:27.335Z,3.10
2017-05-24T22:33:55.570Z,3.40
2017-05-24T22:36:23.838Z,3.42
2017-05-24T22:38:52.180Z,3.20
2017-05-24T22:41:20.463Z,2.90
2017-05-24T22:43:48.690Z,3.70
2017-05-24T22:46:17.021Z,3.52
2017-05-24T22:48:45.271Z,3.46
2017-05-24T22:51:13.510Z,3.64
2017-05-24T22:53:41.758Z,3.64
2017-05-24T22:56:09.983Z,3.56
2017-05-24T22:58:38.234Z,3.10
2017-05-24T23:01:06.473Z,3.66
2017-05-24T23:03:34.730Z,3.18
2017-05-24T23:06:03.018Z,3.42
2017-05-24T23:08:31.272Z,3.60
2017-05-24T23:10:59.555Z,3.30
2017-05-24T23:13:27.799Z,3.52
2017-05-24T23:15:56.020Z,3.52
2017-05-24T23:18:24.260Z,3.18
2017-05-24T23:20:52.565Z,3.00
2017-05-24T23:23:20.799Z,3.46
2017-05-24T23:25:49.041Z,3.46
2017-05-24T23:28:17.284Z,3.28
2017-05-24T23:30:45.529Z,3.42
2017-05-24T23:33:13.839Z,3.28
2017-05-24T23:35:42.084Z,3.66
2017-05-24T23:38:10.394Z,3.46
2017-05-24T23:40:38.644Z,3.50
2017-05-24T23:43:06.882Z,3.48
2017-05-24T23:45:35.108Z,3.20
2017-05-24T23:48:03.348Z,3.36
2017-05-24T23:50:31.571Z,3.22
2017-05-24T23:52:59.845Z,3.42
2017-05-24T23:55:28.086Z,3.58
2017-05-24T23:57:56.393Z,3.34
